createdAt,value
2023-05-25T00:01:38.722Z,3.58
2023-05-25T00:04:06.477Z,3.50
2023-05-25T00:06:33.777Z,3.80
2023-05-25T00:09:01.589Z,3.40
2023-05-25T00:11:28.970Z,3.70
2023-05-25T00:13:56.498Z,3.70
2023-05-25T00:16:23.772Z,3.78
2023-05-25T00:18:51.125Z,3.38
2023-05-25T00:21:18.295Z,3.92
2023-05-25T00:23:46.391Z,3.78
2023-05-25T00:26:13.536Z,3.42
2023-05-25T00:28:40.745Z,3.70
2023-05-25T00:31:08.006Z,3.83
2023-05-25T00:33:35.627Z,3.83
2023-05-25T00:36:03.705Z,4.00
2023-05-25T00:38:31.053Z,3.97
2023-05-25T00:40:58.304Z,3.60
2023-05-25T00:43:25.676Z,3.45
2023-05-25T00:45:53.102Z,3.92
2023-05-25T00:48:20.657Z,4.32
2023-05-25T00:50:48.093Z,4.15
2023-05-25T00:53:15.410Z,4.55
2023-05-25T00:55:51.103Z,3.83
2023-05-25T00:58:21.871Z,3.85
2023-05-25T01:00:53.551Z,3.80
2023-05-25T01:03:28.136Z,4.43
2023-05-25T01:05:58.111Z,4.20
2023-05-25T01:08:27.045Z,4.40
2023-05-25T01:10:55.044Z,3.90
2023-05-25T01:13:22.507Z,4.30
2023-05-25T01:15:51.331Z,4.00
2023-05-25T01:18:18.607Z,3.90
2023-05-25T01:21:20.342Z,4.10
2023-05-25T01:23:53.208Z,4.55
2023-05-25T01:26:22.134Z,4.55
2023-05-25T01:28:53.363Z,4.50
2023-05-25T01:31:23.639Z,4.82
2023-05-25T01:33:52.102Z,4.43
2023-05-25T01:36:20.192Z,4.35
2023-05-25T01:38:48.102Z,4.95
2023-05-25T01:41:15.253Z,3.90
2023-05-25T01:43:43.018Z,4.35
2023-05-25T01:46:18.842Z,4.85
2023-05-25T01:48:56.045Z,5.28
2023-05-25T01:51:36.379Z,5.50
2023-05-25T01:54:12.197Z,5.90
2023-05-25T01:56:40.314Z,6.00
2023-05-25T01:59:09.404Z,5.50
2023-05-25T02:01:37.348Z,5.35
2023-05-25T02:04:06.336Z,4.88
2023-05-25T02:06:35.630Z,5.18
2023-05-25T02:09:06.556Z,4.95
2023-05-25T02:11:33.873Z,5.43
2023-05-25T02:14:01.447Z,5.30
2023-05-25T02:16:30.194Z,5.53
2023-05-25T02:19:00.778Z,5.38
2023-05-25T02:21:28.364Z,5.72
2023-05-25T02:23:58.200Z,6.07
2023-05-25T02:26:25.601Z,5.60
2023-05-25T02:28:52.861Z,6.15
2023-05-25T02:31:20.058Z,6.10
2023-05-25T02:33:47.541Z,5.95
2023-05-25T02:36:14.724Z,5.78
2023-05-25T02:38:42.265Z,5.70
2023-05-25T02:41:09.564Z,5.68
2023-05-25T02:43:37.680Z,5.13
2023-05-25T02:46:04.924Z,5.60
2023-05-25T02:48:32.642Z,5.82
2023-05-25T02:50:59.880Z,5.78
2023-05-25T02:53:27.192Z,5.43
2023-05-25T02:55:55.127Z,5.40
2023-05-25T02:58:25.687Z,5.63
2023-05-25T03:01:06.248Z,5.30
2023-05-25T03:03:38.118Z,5.90
2023-05-25T03:06:05.593Z,4.88
2023-05-25T03:08:33.244Z,5.07
2023-05-25T03:11:01.100Z,5.45
2023-05-25T03:13:28.454Z,5.28
2023-05-25T03:15:55.799Z,5.55
2023-05-25T03:18:23.898Z,6.18
2023-05-25T03:20:51.850Z,5.22
2023-05-25T03:23:19.382Z,5.70
2023-05-25T03:25:50.042Z,5.53
2023-05-25T03:28:18.537Z,5.97
2023-05-25T03:30:46.862Z,5.95
2023-05-25T03:33:16.568Z,5.20
2023-05-25T03:35:47.860Z,5.78
2023-05-25T03:38:15.913Z,5.55
2023-05-25T03:40:44.048Z,5.72
2023-05-25T03:43:11.603Z,5.90
2023-05-25T03:45:39.592Z,5.00
2023-05-25T03:48:07.115Z,5.20
2023-05-25T03:50:34.609Z,4.95
2023-05-25T03:53:01.784Z,5.05
2023-05-25T03:55:29.055Z,5.20
2023-05-25T03:57:56.519Z,5.72
2023-05-25T04:00:23.862Z,5.05
2023-05-25T04:02:51.244Z,5.32
2023-05-25T04:05:18.616Z,5.45
2023-05-25T04:07:46.585Z,5.18
2023-05-25T04:10:14.521Z,4.78
2023-05-25T04:12:41.879Z,4.78
2023-05-25T04:15:09.802Z,4.53
2023-05-25T04:17:48.916Z,4.60
2023-05-25T04:20:16.577Z,4.63
2023-05-25T04:22:45.130Z,4.32
2023-05-25T04:25:13.323Z,4.68
2023-05-25T04:27:42.339Z,4.78
2023-05-25T04:30:11.895Z,4.88
2023-05-25T04:32:48.481Z,5.20
2023-05-25T04:35:27.209Z,5.65
2023-05-25T04:37:54.718Z,6.20
2023-05-25T04:40:22.726Z,6.13
2023-05-25T04:42:50.495Z,6.85
2023-05-25T04:45:17.984Z,6.35
2023-05-25T04:47:45.413Z,6.28
2023-05-25T04:50:13.197Z,5.47
2023-05-25T04:52:40.415Z,6.20
2023-05-25T04:55:09.999Z,6.35
2023-05-25T04:57:40.396Z,5.60
2023-05-25T05:00:10.385Z,5.30
2023-05-25T05:02:39.079Z,5.53
2023-05-25T05:05:08.021Z,5.47
2023-05-25T05:07:35.235Z,5.47
2023-05-25T05:10:03.136Z,5.53
2023-05-25T05:12:32.580Z,4.93
2023-05-25T05:15:01.908Z,5.32
2023-05-25T05:17:30.859Z,5.93
2023-05-25T05:19:58.606Z,4.82
2023-05-25T05:22:25.896Z,5.05
2023-05-25T05:24:53.014Z,6.30
2023-05-25T05:27:26.313Z,5.38
2023-05-25T05:32:26.324Z,5.55
2023-05-25T05:34:54.807Z,4.75
2023-05-25T05:37:34.141Z,4.25
2023-05-25T05:40:01.391Z,4.45
2023-05-25T05:42:28.811Z,4.20
2023-05-25T05:44:56.573Z,4.65
2023-05-25T05:47:23.988Z,4.03
2023-05-25T05:49:51.633Z,3.35
2023-05-25T05:52:19.397Z,4.45
2023-05-25T05:54:46.709Z,4.00
2023-05-25T05:57:15.854Z,3.30
2023-05-25T05:59:43.876Z,3.70
2023-05-25T17:59:54.523Z,5.93
2023-05-25T18:02:21.817Z,6.40
2023-05-25T18:04:49.172Z,6.53
2023-05-25T18:07:16.383Z,6.00
2023-05-25T18:09:43.535Z,5.72
2023-05-25T18:12:10.696Z,6.43
2023-05-25T18:14:37.926Z,6.68
2023-05-25T18:17:05.287Z,6.53
2023-05-25T18:19:35.916Z,6.40
2023-05-25T18:22:03.957Z,5.90
2023-05-25T18:24:34.723Z,7.38
2023-05-25T18:27:03.820Z,7.20
2023-05-25T18:29:31.221Z,6.43
2023-05-25T18:31:58.763Z,6.75
2023-05-25T18:34:26.164Z,6.50
2023-05-25T18:36:53.619Z,7.03
2023-05-25T18:39:20.830Z,6.20
2023-05-25T18:41:48.325Z,6.68
2023-05-25T18:44:15.450Z,6.65
2023-05-25T18:46:44.551Z,6.47
2023-05-25T18:49:13.661Z,6.80
2023-05-25T18:51:40.935Z,7.03
2023-05-25T18:54:08.139Z,7.32
2023-05-25T18:56:35.725Z,7.57
2023-05-25T18:59:03.107Z,7.65
2023-05-25T19:01:30.345Z,6.93
2023-05-25T19:03:59.901Z,6.85
2023-05-25T19:06:27.546Z,7.38
2023-05-25T19:08:55.883Z,6.97
2023-05-25T19:11:22.927Z,7.57
2023-05-25T19:13:51.187Z,7.05
2023-05-25T19:16:18.487Z,6.80
2023-05-25T19:18:47.191Z,8.57
2023-05-25T19:21:14.630Z,7.47
2023-05-25T19:23:43.824Z,6.68
2023-05-25T19:26:12.973Z,7.38
2023-05-25T19:28:42.480Z,8.25
2023-05-25T19:31:12.651Z,7.50
2023-05-25T19:33:42.850Z,7.53
2023-05-25T19:36:10.856Z,7.00
2023-05-25T19:38:42.258Z,6.80
2023-05-25T19:41:11.225Z,6.90
2023-05-25T19:43:40.874Z,7.00
2023-05-25T19:46:10.808Z,7.28
2023-05-25T19:48:40.729Z,7.13
2023-05-25T19:51:08.557Z,7.05
2023-05-25T19:53:37.376Z,6.18
2023-05-25T19:56:05.928Z,7.03
2023-05-25T19:58:32.992Z,8.00
2023-05-25T20:01:36.825Z,7.47
2023-05-25T20:04:19.796Z,8.00
2023-05-25T20:06:48.495Z,7.80
2023-05-25T20:09:19.107Z,7.22
2023-05-25T20:11:47.088Z,7.88
2023-05-25T20:14:14.894Z,7.90
2023-05-25T20:16:44.414Z,7.22
2023-05-25T20:20:02.547Z,7.40
2023-05-25T20:22:36.364Z,7.38
2023-05-25T20:25:06.296Z,8.45
2023-05-25T20:27:40.673Z,7.22
2023-05-25T20:30:08.556Z,6.90
2023-05-25T20:32:35.835Z,6.97
2023-05-25T20:35:04.019Z,8.00
2023-05-25T20:37:32.191Z,7.22
2023-05-25T20:40:00.681Z,7.20
2023-05-25T20:42:27.860Z,7.72
2023-05-25T20:44:56.245Z,6.80
2023-05-25T20:47:23.960Z,7.15
2023-05-25T20:50:18.723Z,7.30
2023-05-25T20:52:45.889Z,7.10
2023-05-25T20:55:12.985Z,7.32
2023-05-25T20:57:40.386Z,7.07
2023-05-25T21:00:08.337Z,6.95
2023-05-25T21:02:35.743Z,6.65
2023-05-25T21:05:02.915Z,8.38
2023-05-25T21:07:30.063Z,7.55
2023-05-25T21:09:59.505Z,7.85
2023-05-25T21:12:27.944Z,7.28
2023-05-25T21:14:55.841Z,7.20
2023-05-25T21:17:23.044Z,7.25
2023-05-25T21:19:50.290Z,7.75
2023-05-25T21:22:18.220Z,7.38
2023-05-25T21:24:45.477Z,7.00
2023-05-25T21:27:12.614Z,7.38
2023-05-25T21:29:39.683Z,7.55
2023-05-25T21:32:07.216Z,8.07
2023-05-25T21:34:34.446Z,7.60
2023-05-25T21:37:01.615Z,8.05
2023-05-25T21:39:28.771Z,8.23
2023-05-25T21:41:56.180Z,7.95
2023-05-25T21:44:23.405Z,7.60
2023-05-25T21:46:50.516Z,7.80
2023-05-25T21:49:17.776Z,7.85
2023-05-25T21:51:44.878Z,8.35
2023-05-25T21:54:12.057Z,8.05
2023-05-25T21:56:39.184Z,8.10
2023-05-25T21:59:06.242Z,8.27
2023-05-25T22:01:33.500Z,7.72
2023-05-25T22:04:00.724Z,8.50
2023-05-25T22:06:27.975Z,8.27
2023-05-25T22:08:55.025Z,8.80
2023-05-25T22:11:22.295Z,8.40
2023-05-25T22:13:49.418Z,7.90
2023-05-25T22:16:16.772Z,8.00
2023-05-25T22:18:44.012Z,8.93
2023-05-25T22:21:11.292Z,8.23
2023-05-25T22:23:38.429Z,8.50
2023-05-25T22:26:05.798Z,8.70
2023-05-25T22:28:32.940Z,8.20
2023-05-25T22:31:00.267Z,8.43
2023-05-25T22:33:27.494Z,8.95
2023-05-25T22:35:54.590Z,8.93
2023-05-25T22:38:21.734Z,8.25
2023-05-25T22:40:48.946Z,8.85
2023-05-25T22:43:16.226Z,9.20
2023-05-25T22:45:43.542Z,8.90
2023-05-25T22:48:11.507Z,9.30
2023-05-25T22:50:38.656Z,9.70
2023-05-25T22:53:05.853Z,8.68
2023-05-25T22:55:32.954Z,9.23
2023-05-25T22:58:00.093Z,9.15
2023-05-25T23:00:27.245Z,8.98
2023-05-25T23:02:54.476Z,8.70
2023-05-25T23:05:21.975Z,9.02
2023-05-25T23:07:49.150Z,8.93
2023-05-25T23:10:16.441Z,9.13
2023-05-25T23:12:43.512Z,8.95
2023-05-25T23:15:11.475Z,8.75
2023-05-25T23:17:38.624Z,8.38
2023-05-25T23:20:07.765Z,8.30
2023-05-25T23:22:35.000Z,8.85
2023-05-25T23:25:02.198Z,8.70
2023-05-25T23:27:29.309Z,9.20
2023-05-25T23:29:56.364Z,8.43
2023-05-25T23:32:23.488Z,8.75
2023-05-25T23:34:50.681Z,9.35
2023-05-25T23:37:17.763Z,8.68
2023-05-25T23:39:44.989Z,8.35
2023-05-25T23:42:15.442Z,8.95
2023-05-25T23:44:42.759Z,8.65
2023-05-25T23:47:10.276Z,8.48
2023-05-25T23:49:37.426Z,8.35
2023-05-25T23:52:06.400Z,8.30
2023-05-25T23:54:33.555Z,8.18
2023-05-25T23:57:01.251Z,8.88
2023-05-25T23:59:28.336Z,8.43
